sensor_id;sensor_type;location;lat;lon;timestamp;P1;durP1;ratioP1;P2;durP2;ratioP2
42912;SDS011;50720;54.324;18.558;2023-02-05T00:02:23;34.50;;;13.55;;
42912;SDS011;50720;54.324;18.558;2023-02-05T00:04:53;24.17;;;11.40;;
42912;SDS011;50720;54.324;18.558;2023-02-05T00:07:23;31.70;;;12.23;;
42912;SDS011;50720;54.324;18.558;2023-02-05T00:09:53;27.17;;;11.25;;
42912;SDS011;50720;54.324;18.558;2023-02-05T00:12:24;25.63;;;11.48;;
42912;SDS011;50720;54.324;18.558;2023-02-05T00:17:23;17.40;;;7.95;;
42912;SDS011;50720;54.324;18.558;2023-02-05T00:19:53;17.15;;;6.75;;
42912;SDS011;50720;54.324;18.558;2023-02-05T00:22:22;12.00;;;5.80;;
42912;SDS011;50720;54.324;18.558;2023-02-05T00:24:52;8.23;;;4.65;;
42912;SDS011;50720;54.324;18.558;2023-02-05T00:27:22;9.23;;;3.60;;
42912;SDS011;50720;54.324;18.558;2023-02-05T00:29:53;9.90;;;3.72;;
42912;SDS011;50720;54.324;18.558;2023-02-05T00:32:22;8.48;;;4.90;;
42912;SDS011;50720;54.324;18.558;2023-02-05T00:34:52;10.02;;;4.25;;
42912;SDS011;50720;54.324;18.558;2023-02-05T00:37:21;10.88;;;5.78;;
42912;SDS011;50720;54.324;18.558;2023-02-05T00:39:51;9.55;;;4.70;;
42912;SDS011;50720;54.324;18.558;2023-02-05T00:42:20;10.70;;;5.35;;
42912;SDS011;50720;54.324;18.558;2023-02-05T00:44:51;8.20;;;3.15;;
42912;SDS011;50720;54.324;18.558;2023-02-05T00:47:21;11.05;;;3.40;;
42912;SDS011;50720;54.324;18.558;2023-02-05T00:49:50;10.98;;;3.78;;
42912;SDS011;50720;54.324;18.558;2023-02-05T00:52:20;13.13;;;5.25;;
42912;SDS011;50720;54.324;18.558;2023-02-05T00:54:51;16.55;;;6.47;;
42912;SDS011;50720;54.324;18.558;2023-02-05T00:57:20;19.13;;;7.65;;
42912;SDS011;50720;54.324;18.558;2023-02-05T00:59:52;25.25;;;11.30;;
42912;SDS011;50720;54.324;18.558;2023-02-05T01:02:21;24.85;;;10.15;;
42912;SDS011;50720;54.324;18.558;2023-02-05T01:04:51;25.88;;;9.63;;
42912;SDS011;50720;54.324;18.558;2023-02-05T01:07:22;27.35;;;11.02;;
42912;SDS011;50720;54.324;18.558;2023-02-05T01:09:51;26.42;;;10.90;;
42912;SDS011;50720;54.324;18.558;2023-02-05T01:12:21;28.05;;;11.68;;
42912;SDS011;50720;54.324;18.558;2023-02-05T01:14:53;36.78;;;12.00;;
42912;SDS011;50720;54.324;18.558;2023-02-05T01:17:22;26.60;;;11.63;;
42912;SDS011;50720;54.324;18.558;2023-02-05T01:19:52;28.23;;;11.32;;
42912;SDS011;50720;54.324;18.558;2023-02-05T01:22:21;25.38;;;10.95;;
42912;SDS011;50720;54.324;18.558;2023-02-05T01:24:51;24.58;;;12.32;;
42912;SDS011;50720;54.324;18.558;2023-02-05T01:27:20;30.58;;;13.77;;
42912;SDS011;50720;54.324;18.558;2023-02-05T01:29:50;29.40;;;12.60;;
42912;SDS011;50720;54.324;18.558;2023-02-05T01:32:21;28.90;;;11.60;;
42912;SDS011;50720;54.324;18.558;2023-02-05T01:34:51;30.83;;;13.30;;
42912;SDS011;50720;54.324;18.558;2023-02-05T01:37:20;33.83;;;13.60;;
42912;SDS011;50720;54.324;18.558;2023-02-05T01:39:51;30.15;;;14.27;;
42912;SDS011;50720;54.324;18.558;2023-02-05T01:42:21;33.33;;;14.18;;
42912;SDS011;50720;54.324;18.558;2023-02-05T01:48:01;34.92;;;13.95;;
42912;SDS011;50720;54.324;18.558;2023-02-05T01:50:33;37.70;;;13.85;;
42912;SDS011;50720;54.324;18.558;2023-02-05T01:53:05;29.98;;;12.82;;
42912;SDS011;50720;54.324;18.558;2023-02-05T01:55:39;29.42;;;12.93;;
42912;SDS011;50720;54.324;18.558;2023-02-05T01:58:12;29.85;;;14.10;;
42912;SDS011;50720;54.324;18.558;2023-02-05T02:00:42;29.40;;;12.07;;
42912;SDS011;50720;54.324;18.558;2023-02-05T02:03:13;27.55;;;12.90;;
42912;SDS011;50720;54.324;18.558;2023-02-05T02:05:44;34.78;;;12.55;;
42912;SDS011;50720;54.324;18.558;2023-02-05T02:08:13;31.63;;;12.75;;
42912;SDS011;50720;54.324;18.558;2023-02-05T02:10:43;31.92;;;14.30;;
42912;SDS011;50720;54.324;18.558;2023-02-05T02:13:16;23.83;;;12.02;;
42912;SDS011;50720;54.324;18.558;2023-02-05T02:15:48;27.55;;;11.55;;
42912;SDS011;50720;54.324;18.558;2023-02-05T02:18:20;31.83;;;12.45;;
42912;SDS011;50720;54.324;18.558;2023-02-05T02:21:13;30.73;;;13.27;;
42912;SDS011;50720;54.324;18.558;2023-02-05T02:24:21;25.88;;;10.57;;
42912;SDS011;50720;54.324;18.558;2023-02-05T02:30:18;26.90;;;11.13;;
42912;SDS011;50720;54.324;18.558;2023-02-05T02:32:55;27.65;;;12.27;;
42912;SDS011;50720;54.324;18.558;2023-02-05T02:35:30;27.40;;;12.07;;
42912;SDS011;50720;54.324;18.558;2023-02-05T02:38:05;26.15;;;13.20;;
42912;SDS011;50720;54.324;18.558;2023-02-05T02:40:39;26.58;;;12.77;;
42912;SDS011;50720;54.324;18.558;2023-02-05T02:43:13;32.78;;;13.00;;
42912;SDS011;50720;54.324;18.558;2023-02-05T02:45:47;24.42;;;11.80;;
42912;SDS011;50720;54.324;18.558;2023-02-05T02:48:21;31.77;;;12.52;;
42912;SDS011;50720;54.324;18.558;2023-02-05T02:50:53;31.35;;;13.25;;
42912;SDS011;50720;54.324;18.558;2023-02-05T02:53:27;32.83;;;13.25;;
42912;SDS011;50720;54.324;18.558;2023-02-05T02:55:57;26.38;;;11.50;;
42912;SDS011;50720;54.324;18.558;2023-02-05T02:58:31;27.60;;;11.10;;
42912;SDS011;50720;54.324;18.558;2023-02-05T03:01:05;30.90;;;14.80;;
42912;SDS011;50720;54.324;18.558;2023-02-05T03:03:38;26.25;;;11.13;;
42912;SDS011;50720;54.324;18.558;2023-02-05T03:06:12;26.42;;;11.38;;
42912;SDS011;50720;54.324;18.558;2023-02-05T03:08:45;28.90;;;11.95;;
42912;SDS011;50720;54.324;18.558;2023-02-05T03:11:19;30.23;;;11.57;;
42912;SDS011;50720;54.324;18.558;2023-02-05T03:13:49;26.15;;;10.25;;
42912;SDS011;50720;54.324;18.558;2023-02-05T03:16:20;25.45;;;11.73;;
42912;SDS011;50720;54.324;18.558;2023-02-05T03:18:51;24.65;;;10.95;;
42912;SDS011;50720;54.324;18.558;2023-02-05T03:21:23;23.88;;;12.18;;
42912;SDS011;50720;54.324;18.558;2023-02-05T03:23:57;27.08;;;11.50;;
42912;SDS011;50720;54.324;18.558;2023-02-05T03:26:27;23.42;;;11.40;;
42912;SDS011;50720;54.324;18.558;2023-02-05T03:28:59;25.35;;;11.40;;
42912;SDS011;50720;54.324;18.558;2023-02-05T03:31:34;30.92;;;11.65;;
42912;SDS011;50720;54.324;18.558;2023-02-05T03:34:13;26.30;;;10.93;;
42912;SDS011;50720;54.324;18.558;2023-02-05T03:36:53;22.92;;;11.23;;
42912;SDS011;50720;54.324;18.558;2023-02-05T03:39:29;25.80;;;10.90;;
42912;SDS011;50720;54.324;18.558;2023-02-05T03:42:13;35.13;;;13.48;;
42912;SDS011;50720;54.324;18.558;2023-02-05T03:44:59;31.88;;;12.40;;
42912;SDS011;50720;54.324;18.558;2023-02-05T03:47:52;27.42;;;12.68;;
42912;SDS011;50720;54.324;18.558;2023-02-05T03:50:40;31.40;;;12.13;;
42912;SDS011;50720;54.324;18.558;2023-02-05T03:53:18;27.10;;;11.82;;
42912;SDS011;50720;54.324;18.558;2023-02-05T03:55:56;26.67;;;11.40;;
42912;SDS011;50720;54.324;18.558;2023-02-05T03:58:33;29.40;;;12.20;;
42912;SDS011;50720;54.324;18.558;2023-02-05T04:01:05;28.65;;;12.45;;
42912;SDS011;50720;54.324;18.558;2023-02-05T04:03:38;27.42;;;11.90;;
42912;SDS011;50720;54.324;18.558;2023-02-05T04:06:08;25.55;;;12.18;;
42912;SDS011;50720;54.324;18.558;2023-02-05T04:08:37;29.77;;;13.05;;
42912;SDS011;50720;54.324;18.558;2023-02-05T04:11:07;24.15;;;13.00;;
42912;SDS011;50720;54.324;18.558;2023-02-05T04:13:37;28.20;;;13.43;;
42912;SDS011;50720;54.324;18.558;2023-02-05T04:16:07;28.52;;;11.25;;
42912;SDS011;50720;54.324;18.558;2023-02-05T04:18:38;26.10;;;11.90;;
42912;SDS011;50720;54.324;18.558;2023-02-05T04:21:08;24.27;;;11.48;;
42912;SDS011;50720;54.324;18.558;2023-02-05T04:23:37;30.50;;;11.88;;
42912;SDS011;50720;54.324;18.558;2023-02-05T04:26:07;28.27;;;12.95;;
42912;SDS011;50720;54.324;18.558;2023-02-05T04:28:36;27.67;;;12.55;;
42912;SDS011;50720;54.324;18.558;2023-02-05T04:31:06;32.60;;;12.88;;
42912;SDS011;50720;54.324;18.558;2023-02-05T04:33:37;29.50;;;11.75;;
42912;SDS011;50720;54.324;18.558;2023-02-05T04:36:08;27.13;;;11.13;;
42912;SDS011;50720;54.324;18.558;2023-02-05T04:38:38;31.25;;;10.40;;
42912;SDS011;50720;54.324;18.558;2023-02-05T04:41:07;24.85;;;11.77;;
42912;SDS011;50720;54.324;18.558;2023-02-05T04:43:37;30.67;;;12.52;;
42912;SDS011;50720;54.324;18.558;2023-02-05T04:46:07;30.45;;;12.90;;
42912;SDS011;50720;54.324;18.558;2023-02-05T04:48:38;28.53;;;12.00;;
42912;SDS011;50720;54.324;18.558;2023-02-05T04:51:08;34.08;;;15.07;;
42912;SDS011;50720;54.324;18.558;2023-02-05T04:53:39;30.33;;;13.20;;
42912;SDS011;50720;54.324;18.558;2023-02-05T04:56:09;29.83;;;10.77;;
42912;SDS011;50720;54.324;18.558;2023-02-05T04:58:40;25.55;;;12.45;;
42912;SDS011;50720;54.324;18.558;2023-02-05T05:01:10;32.10;;;11.57;;
42912;SDS011;50720;54.324;18.558;2023-02-05T05:03:42;25.80;;;11.88;;
42912;SDS011;50720;54.324;18.558;2023-02-05T05:06:12;31.90;;;13.35;;
42912;SDS011;50720;54.324;18.558;2023-02-05T05:08:42;30.40;;;12.90;;
42912;SDS011;50720;54.324;18.558;2023-02-05T05:13:42;33.35;;;10.93;;
42912;SDS011;50720;54.324;18.558;2023-02-05T05:16:12;25.70;;;11.15;;
42912;SDS011;50720;54.324;18.558;2023-02-05T05:18:43;34.10;;;12.77;;
42912;SDS011;50720;54.324;18.558;2023-02-05T05:21:14;27.45;;;11.55;;
42912;SDS011;50720;54.324;18.558;2023-02-05T05:23:44;32.47;;;11.85;;
42912;SDS011;50720;54.324;18.558;2023-02-05T05:26:13;33.92;;;13.88;;
42912;SDS011;50720;54.324;18.558;2023-02-05T05:28:43;34.42;;;13.38;;
42912;SDS011;50720;54.324;18.558;2023-02-05T05:31:14;27.75;;;11.82;;
42912;SDS011;50720;54.324;18.558;2023-02-05T05:33:47;25.40;;;11.15;;
42912;SDS011;50720;54.324;18.558;2023-02-05T05:36:17;27.30;;;12.55;;
42912;SDS011;50720;54.324;18.558;2023-02-05T05:38:46;28.33;;;12.15;;
42912;SDS011;50720;54.324;18.558;2023-02-05T05:41:17;30.95;;;13.02;;
42912;SDS011;50720;54.324;18.558;2023-02-05T05:44:05;26.95;;;11.75;;
42912;SDS011;50720;54.324;18.558;2023-02-05T05:46:36;24.42;;;11.40;;
42912;SDS011;50720;54.324;18.558;2023-02-05T05:49:06;30.05;;;13.30;;
42912;SDS011;50720;54.324;18.558;2023-02-05T05:51:36;29.95;;;13.65;;
42912;SDS011;50720;54.324;18.558;2023-02-05T05:54:05;26.45;;;13.70;;
42912;SDS011;50720;54.324;18.558;2023-02-05T05:56:35;30.13;;;12.95;;
42912;SDS011;50720;54.324;18.558;2023-02-05T05:59:05;34.10;;;13.35;;
42912;SDS011;50720;54.324;18.558;2023-02-05T06:01:34;32.90;;;14.10;;
42912;SDS011;50720;54.324;18.558;2023-02-05T06:04:04;30.23;;;12.50;;
42912;SDS011;50720;54.324;18.558;2023-02-05T06:06:35;30.25;;;13.27;;
42912;SDS011;50720;54.324;18.558;2023-02-05T06:09:05;26.70;;;12.98;;
42912;SDS011;50720;54.324;18.558;2023-02-05T06:11:35;32.97;;;16.08;;
42912;SDS011;50720;54.324;18.558;2023-02-05T06:14:04;29.70;;;12.73;;
42912;SDS011;50720;54.324;18.558;2023-02-05T06:16:33;27.20;;;13.95;;
42912;SDS011;50720;54.324;18.558;2023-02-05T06:19:03;28.58;;;13.02;;
42912;SDS011;50720;54.324;18.558;2023-02-05T06:21:33;33.50;;;13.68;;
42912;SDS011;50720;54.324;18.558;2023-02-05T06:26:33;46.65;;;14.25;;
42912;SDS011;50720;54.324;18.558;2023-02-05T06:29:03;39.50;;;15.13;;
42912;SDS011;50720;54.324;18.558;2023-02-05T06:31:32;32.38;;;13.27;;
42912;SDS011;50720;54.324;18.558;2023-02-05T06:34:02;30.88;;;13.18;;
42912;SDS011;50720;54.324;18.558;2023-02-05T06:36:32;25.52;;;12.55;;
42912;SDS011;50720;54.324;18.558;2023-02-05T06:39:03;28.63;;;14.27;;
42912;SDS011;50720;54.324;18.558;2023-02-05T06:41:32;30.83;;;11.82;;
42912;SDS011;50720;54.324;18.558;2023-02-05T06:44:02;27.85;;;12.45;;
42912;SDS011;50720;54.324;18.558;2023-02-05T06:46:31;26.30;;;11.85;;
42912;SDS011;50720;54.324;18.558;2023-02-05T06:49:01;29.05;;;12.50;;
42912;SDS011;50720;54.324;18.558;2023-02-05T06:51:31;27.17;;;11.57;;
42912;SDS011;50720;54.324;18.558;2023-02-05T06:54:03;22.58;;;10.40;;
42912;SDS011;50720;54.324;18.558;2023-02-05T06:56:32;25.05;;;10.05;;
42912;SDS011;50720;54.324;18.558;2023-02-05T06:59:03;24.15;;;11.60;;
42912;SDS011;50720;54.324;18.558;2023-02-05T07:01:33;23.35;;;10.85;;
42912;SDS011;50720;54.324;18.558;2023-02-05T07:04:02;23.25;;;9.15;;
42912;SDS011;50720;54.324;18.558;2023-02-05T07:06:32;19.90;;;10.17;;
42912;SDS011;50720;54.324;18.558;2023-02-05T07:09:03;25.73;;;10.88;;
42912;SDS011;50720;54.324;18.558;2023-02-05T07:11:33;24.13;;;11.15;;
42912;SDS011;50720;54.324;18.558;2023-02-05T07:14:03;23.60;;;10.88;;
42912;SDS011;50720;54.324;18.558;2023-02-05T07:16:32;24.10;;;9.95;;
42912;SDS011;50720;54.324;18.558;2023-02-05T07:19:02;24.38;;;9.82;;
42912;SDS011;50720;54.324;18.558;2023-02-05T07:21:32;23.48;;;10.30;;
42912;SDS011;50720;54.324;18.558;2023-02-05T07:24:03;22.60;;;10.27;;
42912;SDS011;50720;54.324;18.558;2023-02-05T07:26:33;23.65;;;9.85;;
42912;SDS011;50720;54.324;18.558;2023-02-05T07:29:03;25.75;;;10.23;;
42912;SDS011;50720;54.324;18.558;2023-02-05T07:31:33;19.63;;;9.48;;
42912;SDS011;50720;54.324;18.558;2023-02-05T07:34:03;26.75;;;10.38;;
42912;SDS011;50720;54.324;18.558;2023-02-05T07:36:33;22.38;;;9.45;;
42912;SDS011;50720;54.324;18.558;2023-02-05T07:39:03;19.55;;;9.18;;
42912;SDS011;50720;54.324;18.558;2023-02-05T07:41:33;20.65;;;8.90;;
42912;SDS011;50720;54.324;18.558;2023-02-05T07:44:03;25.85;;;10.32;;
42912;SDS011;50720;54.324;18.558;2023-02-05T07:46:32;18.65;;;8.52;;
42912;SDS011;50720;54.324;18.558;2023-02-05T07:49:02;23.38;;;9.77;;
42912;SDS011;50720;54.324;18.558;2023-02-05T07:51:32;16.45;;;9.15;;
42912;SDS011;50720;54.324;18.558;2023-02-05T07:54:05;16.98;;;8.00;;
42912;SDS011;50720;54.324;18.558;2023-02-05T07:56:36;21.05;;;8.10;;
42912;SDS011;50720;54.324;18.558;2023-02-05T07:59:06;18.20;;;8.77;;
42912;SDS011;50720;54.324;18.558;2023-02-05T08:01:36;17.27;;;9.35;;
42912;SDS011;50720;54.324;18.558;2023-02-05T08:04:05;15.95;;;8.43;;
42912;SDS011;50720;54.324;18.558;2023-02-05T08:06:35;19.75;;;8.40;;
42912;SDS011;50720;54.324;18.558;2023-02-05T08:09:06;20.02;;;9.70;;
42912;SDS011;50720;54.324;18.558;2023-02-05T08:11:36;19.73;;;7.85;;
42912;SDS011;50720;54.324;18.558;2023-02-05T08:14:06;24.60;;;8.68;;
42912;SDS011;50720;54.324;18.558;2023-02-05T08:16:36;20.20;;;8.52;;
42912;SDS011;50720;54.324;18.558;2023-02-05T08:19:05;19.00;;;9.82;;
42912;SDS011;50720;54.324;18.558;2023-02-05T08:21:38;19.40;;;8.73;;
42912;SDS011;50720;54.324;18.558;2023-02-05T08:24:09;21.52;;;9.48;;
42912;SDS011;50720;54.324;18.558;2023-02-05T08:26:39;22.17;;;9.73;;
42912;SDS011;50720;54.324;18.558;2023-02-05T08:29:09;24.35;;;10.52;;
42912;SDS011;50720;54.324;18.558;2023-02-05T08:31:39;22.83;;;9.35;;
42912;SDS011;50720;54.324;18.558;2023-02-05T08:34:09;26.45;;;12.10;;
42912;SDS011;50720;54.324;18.558;2023-02-05T08:36:39;20.73;;;11.20;;
42912;SDS011;50720;54.324;18.558;2023-02-05T08:39:09;22.20;;;10.70;;
42912;SDS011;50720;54.324;18.558;2023-02-05T08:41:39;22.40;;;10.63;;
42912;SDS011;50720;54.324;18.558;2023-02-05T08:44:09;20.77;;;9.05;;
42912;SDS011;50720;54.324;18.558;2023-02-05T08:46:39;16.10;;;8.95;;
42912;SDS011;50720;54.324;18.558;2023-02-05T08:49:16;23.17;;;10.30;;
42912;SDS011;50720;54.324;18.558;2023-02-05T08:51:45;18.98;;;10.07;;
42912;SDS011;50720;54.324;18.558;2023-02-05T08:54:16;16.77;;;9.55;;
42912;SDS011;50720;54.324;18.558;2023-02-05T08:56:48;17.48;;;8.88;;
42912;SDS011;50720;54.324;18.558;2023-02-05T08:59:18;27.75;;;11.45;;
42912;SDS011;50720;54.324;18.558;2023-02-05T09:01:48;23.92;;;9.88;;
42912;SDS011;50720;54.324;18.558;2023-02-05T09:04:18;22.05;;;10.63;;
42912;SDS011;50720;54.324;18.558;2023-02-05T09:06:48;26.83;;;11.30;;
42912;SDS011;50720;54.324;18.558;2023-02-05T09:09:19;23.08;;;11.00;;
42912;SDS011;50720;54.324;18.558;2023-02-05T09:11:49;24.92;;;11.27;;
42912;SDS011;50720;54.324;18.558;2023-02-05T09:14:18;26.30;;;10.60;;
42912;SDS011;50720;54.324;18.558;2023-02-05T09:16:48;20.95;;;10.07;;
42912;SDS011;50720;54.324;18.558;2023-02-05T09:19:17;20.27;;;10.32;;
42912;SDS011;50720;54.324;18.558;2023-02-05T09:21:47;20.45;;;9.82;;
42912;SDS011;50720;54.324;18.558;2023-02-05T09:24:21;21.88;;;10.10;;
42912;SDS011;50720;54.324;18.558;2023-02-05T09:26:50;21.23;;;10.13;;
42912;SDS011;50720;54.324;18.558;2023-02-05T09:29:20;21.65;;;10.13;;
42912;SDS011;50720;54.324;18.558;2023-02-05T09:31:50;19.23;;;9.43;;
42912;SDS011;50720;54.324;18.558;2023-02-05T09:34:19;22.60;;;8.75;;
42912;SDS011;50720;54.324;18.558;2023-02-05T09:36:49;19.60;;;8.45;;
42912;SDS011;50720;54.324;18.558;2023-02-05T09:39:18;15.60;;;9.02;;
42912;SDS011;50720;54.324;18.558;2023-02-05T09:42:12;26.92;;;10.45;;
42912;SDS011;50720;54.324;18.558;2023-02-05T09:44:53;17.15;;;9.20;;
42912;SDS011;50720;54.324;18.558;2023-02-05T09:47:29;25.67;;;11.13;;
42912;SDS011;50720;54.324;18.558;2023-02-05T09:50:03;24.90;;;11.13;;
42912;SDS011;50720;54.324;18.558;2023-02-05T09:52:42;24.42;;;11.32;;
42912;SDS011;50720;54.324;18.558;2023-02-05T09:55:20;21.55;;;9.65;;
42912;SDS011;50720;54.324;18.558;2023-02-05T09:57:52;26.95;;;12.07;;
42912;SDS011;50720;54.324;18.558;2023-02-05T10:00:27;22.35;;;10.90;;
42912;SDS011;50720;54.324;18.558;2023-02-05T10:03:01;24.38;;;10.52;;
42912;SDS011;50720;54.324;18.558;2023-02-05T10:05:39;26.45;;;11.07;;
42912;SDS011;50720;54.324;18.558;2023-02-05T10:08:16;18.50;;;9.50;;
42912;SDS011;50720;54.324;18.558;2023-02-05T10:10:53;34.17;;;15.68;;
42912;SDS011;50720;54.324;18.558;2023-02-05T10:13:26;23.50;;;11.18;;
42912;SDS011;50720;54.324;18.558;2023-02-05T10:16:16;26.20;;;10.85;;
42912;SDS011;50720;54.324;18.558;2023-02-05T10:19:04;25.10;;;11.50;;
42912;SDS011;50720;54.324;18.558;2023-02-05T10:22:11;23.50;;;11.57;;
42912;SDS011;50720;54.324;18.558;2023-02-05T10:24:51;21.80;;;8.90;;
42912;SDS011;50720;54.324;18.558;2023-02-05T10:27:36;17.00;;;10.05;;
42912;SDS011;50720;54.324;18.558;2023-02-05T10:30:15;24.20;;;10.45;;
42912;SDS011;50720;54.324;18.558;2023-02-05T10:32:52;20.90;;;9.57;;
42912;SDS011;50720;54.324;18.558;2023-02-05T10:35:27;20.20;;;10.50;;
42912;SDS011;50720;54.324;18.558;2023-02-05T10:38:12;25.33;;;11.60;;
42912;SDS011;50720;54.324;18.558;2023-02-05T10:40:45;23.85;;;11.05;;
42912;SDS011;50720;54.324;18.558;2023-02-05T10:43:18;23.90;;;10.25;;
42912;SDS011;50720;54.324;18.558;2023-02-05T10:45:53;27.50;;;10.55;;
42912;SDS011;50720;54.324;18.558;2023-02-05T10:48:32;21.20;;;9.68;;
42912;SDS011;50720;54.324;18.558;2023-02-05T10:51:08;25.38;;;10.65;;
42912;SDS011;50720;54.324;18.558;2023-02-05T10:53:40;24.73;;;10.75;;
42912;SDS011;50720;54.324;18.558;2023-02-05T10:56:13;18.60;;;9.70;;
42912;SDS011;50720;54.324;18.558;2023-02-05T10:58:47;22.10;;;10.00;;
42912;SDS011;50720;54.324;18.558;2023-02-05T11:01:21;20.70;;;9.38;;
42912;SDS011;50720;54.324;18.558;2023-02-05T11:03:53;18.40;;;9.57;;
42912;SDS011;50720;54.324;18.558;2023-02-05T11:06:27;21.88;;;10.02;;
42912;SDS011;50720;54.324;18.558;2023-02-05T11:09:00;21.20;;;11.35;;
42912;SDS011;50720;54.324;18.558;2023-02-05T11:11:30;26.13;;;11.88;;
42912;SDS011;50720;54.324;18.558;2023-02-05T11:14:03;26.92;;;12.18;;
42912;SDS011;50720;54.324;18.558;2023-02-05T11:16:35;30.20;;;12.82;;
42912;SDS011;50720;54.324;18.558;2023-02-05T11:19:14;29.27;;;12.73;;
42912;SDS011;50720;54.324;18.558;2023-02-05T11:21:49;36.70;;;15.73;;
42912;SDS011;50720;54.324;18.558;2023-02-05T11:24:24;38.83;;;14.38;;
42912;SDS011;50720;54.324;18.558;2023-02-05T11:30:14;35.95;;;15.90;;
42912;SDS011;50720;54.324;18.558;2023-02-05T11:33:15;33.03;;;16.77;;
42912;SDS011;50720;54.324;18.558;2023-02-05T11:35:58;41.63;;;18.80;;
42912;SDS011;50720;54.324;18.558;2023-02-05T11:38:31;31.10;;;14.63;;
42912;SDS011;50720;54.324;18.558;2023-02-05T11:41:05;35.47;;;15.52;;
42912;SDS011;50720;54.324;18.558;2023-02-05T11:43:37;41.38;;;18.70;;
42912;SDS011;50720;54.324;18.558;2023-02-05T11:46:15;25.55;;;13.10;;
42912;SDS011;50720;54.324;18.558;2023-02-05T11:48:48;27.13;;;10.30;;
42912;SDS011;50720;54.324;18.558;2023-02-05T11:51:28;16.83;;;7.65;;
42912;SDS011;50720;54.324;18.558;2023-02-05T11:54:11;19.92;;;8.75;;
42912;SDS011;50720;54.324;18.558;2023-02-05T11:56:59;19.70;;;10.13;;
42912;SDS011;50720;54.324;18.558;2023-02-05T11:59:31;16.15;;;6.50;;
42912;SDS011;50720;54.324;18.558;2023-02-05T12:05:12;18.48;;;9.05;;
42912;SDS011;50720;54.324;18.558;2023-02-05T12:07:47;12.40;;;5.57;;
42912;SDS011;50720;54.324;18.558;2023-02-05T12:10:22;6.85;;;3.22;;
42912;SDS011;50720;54.324;18.558;2023-02-05T12:12:59;2.13;;;1.58;;
42912;SDS011;50720;54.324;18.558;2023-02-05T12:15:36;2.63;;;1.40;;
42912;SDS011;50720;54.324;18.558;2023-02-05T12:18:15;2.65;;;1.30;;
42912;SDS011;50720;54.324;18.558;2023-02-05T12:21:02;2.58;;;1.05;;
42912;SDS011;50720;54.324;18.558;2023-02-05T12:23:49;2.10;;;1.00;;
42912;SDS011;50720;54.324;18.558;2023-02-05T12:26:31;1.52;;;0.82;;
42912;SDS011;50720;54.324;18.558;2023-02-05T12:29:07;2.35;;;0.80;;
42912;SDS011;50720;54.324;18.558;2023-02-05T12:31:56;3.85;;;0.40;;
42912;SDS011;50720;54.324;18.558;2023-02-05T12:34:37;1.85;;;0.50;;
42912;SDS011;50720;54.324;18.558;2023-02-05T12:37:30;2.65;;;0.70;;
42912;SDS011;50720;54.324;18.558;2023-02-05T12:40:13;3.40;;;0.95;;
42912;SDS011;50720;54.324;18.558;2023-02-05T12:42:55;6.05;;;2.28;;
42912;SDS011;50720;54.324;18.558;2023-02-05T12:45:34;7.07;;;3.50;;
42912;SDS011;50720;54.324;18.558;2023-02-05T12:48:26;1.52;;;0.70;;
42912;SDS011;50720;54.324;18.558;2023-02-05T12:51:11;1.67;;;0.75;;
42912;SDS011;50720;54.324;18.558;2023-02-05T12:53:59;1.58;;;1.00;;
42912;SDS011;50720;54.324;18.558;2023-02-05T12:56:51;0.88;;;0.50;;
42912;SDS011;50720;54.324;18.558;2023-02-05T12:59:43;19.58;;;8.20;;
42912;SDS011;50720;54.324;18.558;2023-02-05T13:02:18;1.80;;;1.08;;
42912;SDS011;50720;54.324;18.558;2023-02-05T13:04:57;1.63;;;0.70;;
42912;SDS011;50720;54.324;18.558;2023-02-05T13:07:35;2.33;;;0.60;;
42912;SDS011;50720;54.324;18.558;2023-02-05T13:10:13;6.40;;;0.95;;
42912;SDS011;50720;54.324;18.558;2023-02-05T13:12:46;1.25;;;0.82;;
42912;SDS011;50720;54.324;18.558;2023-02-05T13:15:24;2.78;;;1.17;;
42912;SDS011;50720;54.324;18.558;2023-02-05T13:17:58;2.03;;;0.85;;
42912;SDS011;50720;54.324;18.558;2023-02-05T13:20:34;2.25;;;1.00;;
42912;SDS011;50720;54.324;18.558;2023-02-05T13:23:24;3.80;;;1.05;;
42912;SDS011;50720;54.324;18.558;2023-02-05T13:26:15;2.17;;;0.75;;
42912;SDS011;50720;54.324;18.558;2023-02-05T13:29:03;52.78;;;24.92;;
42912;SDS011;50720;54.324;18.558;2023-02-05T13:31:37;5.10;;;2.80;;
42912;SDS011;50720;54.324;18.558;2023-02-05T13:34:11;1.50;;;0.88;;
42912;SDS011;50720;54.324;18.558;2023-02-05T13:36:52;3.30;;;0.98;;
42912;SDS011;50720;54.324;18.558;2023-02-05T13:42:37;5.25;;;1.88;;
42912;SDS011;50720;54.324;18.558;2023-02-05T13:51:57;6.18;;;2.08;;
42912;SDS011;50720;54.324;18.558;2023-02-05T13:55:01;3.50;;;0.88;;
42912;SDS011;50720;54.324;18.558;2023-02-05T13:58:18;1.77;;;1.30;;
42912;SDS011;50720;54.324;18.558;2023-02-05T14:00:52;1.67;;;0.93;;
42912;SDS011;50720;54.324;18.558;2023-02-05T14:03:28;2.03;;;0.60;;
42912;SDS011;50720;54.324;18.558;2023-02-05T14:06:11;3.00;;;0.80;;
42912;SDS011;50720;54.324;18.558;2023-02-05T14:08:47;4.40;;;1.00;;
42912;SDS011;50720;54.324;18.558;2023-02-05T14:11:20;4.68;;;1.30;;
42912;SDS011;50720;54.324;18.558;2023-02-05T14:17:00;2.53;;;0.95;;
42912;SDS011;50720;54.324;18.558;2023-02-05T14:19:51;3.17;;;1.60;;
42912;SDS011;50720;54.324;18.558;2023-02-05T14:22:34;3.95;;;1.38;;
42912;SDS011;50720;54.324;18.558;2023-02-05T14:31:04;5.97;;;3.03;;
42912;SDS011;50720;54.324;18.558;2023-02-05T14:33:37;6.25;;;2.70;;
42912;SDS011;50720;54.324;18.558;2023-02-05T14:39:17;4.50;;;2.45;;
42912;SDS011;50720;54.324;18.558;2023-02-05T14:41:49;4.57;;;2.55;;
42912;SDS011;50720;54.324;18.558;2023-02-05T14:44:26;5.28;;;2.83;;
42912;SDS011;50720;54.324;18.558;2023-02-05T14:46:59;10.85;;;3.85;;
42912;SDS011;50720;54.324;18.558;2023-02-05T14:49:37;6.90;;;3.10;;
42912;SDS011;50720;54.324;18.558;2023-02-05T14:52:22;8.50;;;3.65;;
42912;SDS011;50720;54.324;18.558;2023-02-05T14:54:57;7.70;;;3.92;;
42912;SDS011;50720;54.324;18.558;2023-02-05T14:57:34;23.38;;;8.80;;
42912;SDS011;50720;54.324;18.558;2023-02-05T15:00:25;21.60;;;9.23;;
42912;SDS011;50720;54.324;18.558;2023-02-05T15:03:11;21.70;;;7.55;;
42912;SDS011;50720;54.324;18.558;2023-02-05T15:05:53;21.95;;;6.97;;
42912;SDS011;50720;54.324;18.558;2023-02-05T15:08:34;15.98;;;7.07;;
42912;SDS011;50720;54.324;18.558;2023-02-05T15:11:19;23.63;;;7.57;;
42912;SDS011;50720;54.324;18.558;2023-02-05T15:20:27;14.75;;;6.10;;
42912;SDS011;50720;54.324;18.558;2023-02-05T15:23:09;35.28;;;10.35;;
42912;SDS011;50720;54.324;18.558;2023-02-05T15:25:49;26.17;;;10.10;;
42912;SDS011;50720;54.324;18.558;2023-02-05T15:28:27;29.52;;;12.13;;
42912;SDS011;50720;54.324;18.558;2023-02-05T15:31:14;19.95;;;8.32;;
42912;SDS011;50720;54.324;18.558;2023-02-05T15:33:55;22.67;;;6.95;;
42912;SDS011;50720;54.324;18.558;2023-02-05T15:36:30;16.75;;;6.85;;
42912;SDS011;50720;54.324;18.558;2023-02-05T15:39:16;23.23;;;7.82;;
42912;SDS011;50720;54.324;18.558;2023-02-05T15:41:51;18.30;;;8.10;;
42912;SDS011;50720;54.324;18.558;2023-02-05T15:44:25;21.25;;;7.95;;
42912;SDS011;50720;54.324;18.558;2023-02-05T15:46:56;43.17;;;17.15;;